This is the latest recevied weather packets stored in our database for station/object TULLARI. If no packets are shown the sender has not sent any weather packets the latest 10 day(s).
| Time | Temp. | Humidity | Pressure | Rain* | Wind** | Luminosity | Snow |
|---|---|---|---|---|---|---|---|
| 1777487217 | 4.44° C | 74% | 1025.2 hPa | - | - | - | - |
| 1777486017 | 4.44° C | 69% | 1025.2 hPa | - | - | - | - |
| 1777484817 | 5° C | 69% | 1025.3 hPa | - | - | - | - |
| 1777483617 | 5° C | 62% | 1025.4 hPa | - | - | - | - |
| 1777482417 | 5° C | 64% | 1025.5 hPa | - | - | - | - |
| 1777481217 | 5.56° C | 67% | 1025.5 hPa | - | - | - | - |
| 1777480016 | 5.56° C | 71% | 1025.3 hPa | - | - | - | - |
| 1777478816 | 5.56° C | 65% | 1025.2 hPa | - | - | - | - |
| 1777477616 | 6.11° C | 62% | 1025.4 hPa | - | - | - | - |
| 1777476416 | 6.67° C | 55% | 1025.5 hPa | - | - | - | - |
| 1777475216 | 7.78° C | 46% | 1025.5 hPa | - | - | - | - |
| 1777474016 | 6.67° C | 52% | 1025.5 hPa | - | - | - | - |
| 1777472816 | 7.22° C | 47% | 1025.7 hPa | - | - | - | - |
| 1777471616 | 7.22° C | 49% | 1025.7 hPa | - | - | - | - |
| 1777470416 | 7.22° C | 50% | 1025.7 hPa | - | - | - | - |
| 1777469216 | 7.22° C | 51% | 1025.8 hPa | - | - | - | - |
| 1777468015 | 7.22° C | 55% | 1025.9 hPa | - | - | - | - |
| 1777466816 | 6.67° C | 55% | 1025.9 hPa | - | - | - | - |
| 1777465616 | 6.11° C | 65% | 1026 hPa | - | - | - | - |
| 1777464415 | 7.22° C | 51% | 1026.2 hPa | - | - | - | - |
| 1777463216 | 6.67° C | 57% | 1026.3 hPa | - | - | - | - |
| 1777462016 | 7.78° C | 44% | 1026.4 hPa | - | - | - | - |
| 1777460816 | 7.22° C | 49% | 1026.5 hPa | - | - | - | - |
| 1777459615 | 7.22° C | 37% | 1026.7 hPa | - | - | - | - |
| 1777458416 | 6.67° C | 39% | 1026.7 hPa | - | - | - | - |
* Rain since midnight (hover to see other rain measurements)
** Current wind speed in m/s (hover to see current wind gust speed)